createdAt,value
2017-06-22T00:02:21.024Z,72.69
2017-06-22T17:08:48.168Z,36.49
2017-06-22T17:09:48.011Z,36.1
2017-06-22T17:10:48.250Z,36.3
2017-06-22T17:11:47.974Z,36.1
2017-06-22T17:12:47.980Z,36
2017-06-22T17:13:47.972Z,36
2017-06-22T17:14:47.975Z,36.2
2017-06-22T17:15:47.976Z,35.71
2017-06-22T17:16:47.979Z,35.81
2017-06-22T17:17:47.979Z,35.61
2017-06-22T17:18:48.184Z,35.52
2017-06-22T17:19:47.982Z,35.11
2017-06-22T17:20:47.984Z,35.11
2017-06-22T17:21:47.987Z,35.3
2017-06-22T17:22:48.006Z,35.4
2017-06-22T17:23:47.993Z,35.4
2017-06-22T17:24:47.991Z,35.6
2017-06-22T17:25:47.998Z,35.79
2017-06-22T17:26:47.999Z,35.87
2017-06-22T17:27:48.000Z,35.97
2017-06-22T17:28:47.998Z,35.68
2017-06-22T17:29:48.007Z,35.77
2017-06-22T17:30:48.005Z,35.68
2017-06-22T17:31:47.702Z,35.38
2017-06-22T17:32:47.702Z,35.19
2017-06-22T17:33:48.010Z,35.28
2017-06-22T17:34:47.707Z,35.58
2017-06-22T17:35:48.013Z,35.58
2017-06-22T17:36:47.708Z,35.28
2017-06-22T17:37:48.026Z,34.99
2017-06-22T17:38:48.023Z,35.19
2017-06-22T17:39:48.023Z,35.09
2017-06-22T17:40:48.025Z,35.19
2017-06-22T17:41:48.024Z,35.09
2017-06-22T17:42:48.028Z,35.27
2017-06-22T17:43:48.028Z,35.17
2017-06-22T17:44:47.941Z,35.46
2017-06-22T17:45:48.033Z,35.27
2017-06-22T17:46:47.734Z,35.56
2017-06-22T17:47:48.402Z,35.85
2017-06-22T17:48:48.039Z,36.05
2017-06-22T17:49:48.039Z,36.05
2017-06-22T17:50:48.249Z,36.05
2017-06-22T17:51:48.043Z,35.95
2017-06-22T17:52:47.737Z,35.95
2017-06-22T17:53:48.047Z,36.15
2017-06-22T17:54:48.049Z,36.15
2017-06-22T17:55:48.050Z,36.05
2017-06-22T17:56:47.745Z,35.95
2017-06-22T17:57:48.052Z,36.44
2017-06-22T17:58:48.057Z,36.52
2017-06-22T17:59:48.058Z,36.24
2017-06-22T18:00:47.753Z,36.72
2017-06-22T18:01:47.752Z,36.91
2017-06-22T18:02:48.063Z,36.72
2017-06-22T18:03:47.756Z,37.21
2017-06-22T18:04:48.210Z,37.3
2017-06-22T18:05:48.070Z,37.7
2017-06-22T18:06:48.069Z,37.57
2017-06-22T18:07:47.764Z,37.67
2017-06-22T18:08:47.765Z,37.67
2017-06-22T18:09:48.415Z,37.77
2017-06-22T18:10:48.081Z,37.77
2017-06-22T18:11:48.079Z,38.16
2017-06-22T18:12:48.080Z,38.26
2017-06-22T18:13:48.082Z,38.55
2017-06-22T18:14:47.776Z,38.43
2017-06-22T18:15:47.776Z,38.53
2017-06-22T18:16:48.087Z,38.82
2017-06-22T18:17:48.088Z,38.73
2017-06-22T18:18:48.089Z,38.53
2017-06-22T18:19:47.787Z,39.22
2017-06-22T18:20:48.096Z,39.51
2017-06-22T18:21:48.096Z,39.8
2017-06-22T18:22:48.098Z,40.17
2017-06-22T18:23:48.099Z,40.39
2017-06-22T18:24:47.796Z,40.56
2017-06-22T18:25:47.799Z,40.86
2017-06-22T18:26:48.105Z,41.25
2017-06-22T18:27:48.106Z,41.54
2017-06-22T18:28:48.108Z,41.54
2017-06-22T18:29:47.803Z,41.54
2017-06-22T18:30:47.803Z,42.12
2017-06-22T18:31:48.200Z,42.2
2017-06-22T18:32:48.114Z,42.88
2017-06-22T18:33:48.117Z,42.88
2017-06-22T18:34:47.809Z,43.47
2017-06-22T18:35:47.814Z,43.47
2017-06-22T18:36:47.814Z,44.24
2017-06-22T18:37:47.816Z,44.54
2017-06-22T18:38:48.128Z,43.95
2017-06-22T18:39:47.820Z,44.13
